Time;durP1;ratioP1;P1;durP2;ratioP2;P2;SDS_P1;SDS_P2;PMS_P1;PMS_P2;Temp;Humidity;BMP_temperature;BMP_pressure;BME280_temperature;BME280_humidity;BME280_pressure;Samples;Min_cycle;Max_cycle;Signal;HPM_P1;HPM_P2
2023/06/20 00:00:47;;;;;;;9.93;6.72;;;;;;;22.86;68.15;100311.84;4967942;28;20129;-78
2023/06/20 00:03:14;;;;;;;8.63;6.10;;;;;;;22.81;69.01;100318.72;4976428;28;20589;-77
2023/06/20 00:05:40;;;;;;;10.45;6.78;;;;;;;22.95;69.30;100318.38;4974202;28;20312;-77
2023/06/20 00:08:07;;;;;;;11.35;6.93;;;;;;;22.81;70.56;100326.72;4974615;28;20129;-77
2023/06/20 00:10:34;;;;;;;8.75;6.65;;;;;;;22.74;70.40;100331.38;4974915;28;20591;-78
2023/06/20 00:13:00;;;;;;;9.65;6.70;;;;;;;22.62;70.72;100320.00;4975145;28;20056;-77
2023/06/20 00:15:28;;;;;;;8.57;6.82;;;;;;;22.54;70.84;100320.41;4974911;28;20101;-77
2023/06/20 00:17:57;;;;;;;10.63;6.35;;;;;;;22.53;71.01;100332.13;4975157;28;20086;-76
2023/06/20 00:20:24;;;;;;;10.90;7.10;;;;;;;22.52;71.35;100327.84;4974108;28;20105;-76
2023/06/20 00:22:52;;;;;;;8.77;6.57;;;;;;;22.54;71.22;100325.72;4966939;28;20126;-77
2023/06/20 00:25:19;;;;;;;11.20;7.10;;;;;;;22.54;71.67;100331.06;4974827;28;20355;-77
2023/06/20 00:27:45;;;;;;;10.57;6.78;;;;;;;22.39;73.19;100352.94;4974300;28;20078;-77
2023/06/20 00:30:13;;;;;;;10.60;7.95;;;;;;;22.34;74.84;100358.19;4972325;28;20102;-77
2023/06/20 00:32:42;;;;;;;11.35;6.63;;;;;;;22.30;75.42;100357.03;4972501;28;20122;-77
2023/06/20 00:35:09;;;;;;;12.65;7.20;;;;;;;22.33;76.25;100361.09;4972850;28;20137;-77
2023/06/20 00:37:37;;;;;;;8.25;7.07;;;;;;;22.24;76.55;100351.84;4972861;28;20130;-78
2023/06/20 00:40:06;;;;;;;14.25;7.32;;;;;;;22.21;76.99;100360.34;4972378;28;20057;-77
2023/06/20 00:42:32;;;;;;;12.00;7.50;;;;;;;22.28;77.32;100358.31;4972352;28;20059;-78
2023/06/20 00:44:59;;;;;;;10.80;7.03;;;;;;;22.29;76.99;100359.94;4972885;28;20055;-77
2023/06/20 00:47:26;;;;;;;11.27;7.40;;;;;;;22.26;78.28;100360.41;4972245;28;20082;-78
2023/06/20 00:49:54;;;;;;;11.25;7.20;;;;;;;22.25;78.04;100370.28;4972331;28;20053;-78
2023/06/20 00:52:22;;;;;;;10.70;6.85;;;;;;;22.16;78.34;100363.72;4972442;28;20126;-77
2023/06/20 00:54:49;;;;;;;8.82;7.32;;;;;;;22.06;77.60;100347.53;4972058;28;20219;-77
2023/06/20 00:57:19;;;;;;;10.40;7.22;;;;;;;22.00;77.23;100341.28;4967118;28;20480;-77
2023/06/20 00:59:46;;;;;;;11.18;7.30;;;;;;;21.97;77.56;100347.09;4970363;28;20062;-77
2023/06/20 01:02:14;;;;;;;11.43;7.43;;;;;;;21.84;77.63;100348.16;4972122;28;20133;-77
2023/06/20 01:04:42;;;;;;;14.57;7.28;;;;;;;21.75;77.55;100349.56;4964787;28;20449;-78
2023/06/20 01:07:15;;;;;;;10.43;6.90;;;;;;;21.61;77.72;100347.44;4972786;28;20057;-78
2023/06/20 01:09:52;;;;;;;12.32;7.78;;;;;;;21.57;78.15;100357.75;4995132;23;20114;-76
2023/06/20 01:12:27;;;;;;;11.30;7.68;;;;;;;21.47;78.98;100352.19;4952860;29;20157;-78
2023/06/20 01:14:59;;;;;;;9.30;7.55;;;;;;;21.39;79.60;100356.03;4953450;29;20059;-80
2023/06/20 01:17:35;;;;;;;12.07;7.80;;;;;;;21.30;80.00;100362.75;4954769;29;20565;-80
2023/06/20 01:20:08;;;;;;;13.07;8.15;;;;;;;21.24;80.21;100369.03;4954826;29;20087;-80
2023/06/20 01:22:44;;;;;;;12.00;7.57;;;;;;;21.23;80.59;100356.75;4954522;29;20051;-76
2023/06/20 01:25:17;;;;;;;11.15;7.57;;;;;;;21.20;81.37;100362.50;4951163;29;20079;-80
2023/06/20 01:27:52;;;;;;;14.10;7.97;;;;;;;21.17;81.77;100362.97;4954419;29;20069;-80
2023/06/20 01:30:24;;;;;;;11.10;7.85;;;;;;;21.19;82.03;100358.22;4955844;29;20660;-80
2023/06/20 01:32:55;;;;;;;10.30;7.57;;;;;;;21.19;81.85;100367.03;4955098;28;20059;-79
2023/06/20 01:35:27;;;;;;;10.20;7.18;;;;;;;21.32;81.64;100359.84;4962954;29;20221;-81
2023/06/20 01:38:02;;;;;;;15.60;8.30;;;;;;;21.34;81.54;100363.09;4962335;29;20055;-79
2023/06/20 01:40:30;;;;;;;10.35;7.63;;;;;;;21.31;81.40;100358.22;4962970;29;20225;-79
2023/06/20 01:42:59;;;;;;;12.02;7.72;;;;;;;21.33;81.36;100356.16;4960346;29;20070;-78
2023/06/20 01:45:28;;;;;;;9.68;7.82;;;;;;;21.17;81.97;100365.63;4954216;29;20221;-81
2023/06/20 01:48:00;;;;;;;18.23;7.90;;;;;;;21.03;82.78;100369.56;4962310;29;20473;-80
2023/06/20 01:50:29;;;;;;;12.07;7.68;;;;;;;21.16;82.76;100372.81;4962041;29;20142;-79
2023/06/20 01:52:58;;;;;;;11.60;7.47;;;;;;;21.19;82.55;100366.22;4960880;29;20130;-78
2023/06/20 01:55:28;;;;;;;12.65;7.82;;;;;;;21.26;82.76;100371.44;4959636;29;20071;-79
2023/06/20 01:57:58;;;;;;;10.70;7.43;;;;;;;21.29;83.67;100369.09;4967172;29;20075;-78
2023/06/20 02:00:27;;;;;;;9.57;8.00;;;;;;;21.28;83.97;100370.16;4966729;29;20119;-77
2023/06/20 02:02:57;;;;;;;13.73;7.82;;;;;;;21.26;84.21;100371.44;4966359;29;20329;-78
2023/06/20 02:05:25;;;;;;;12.40;7.45;;;;;;;21.33;84.68;100378.25;4962710;29;20086;-78
2023/06/20 02:07:54;;;;;;;11.00;7.45;;;;;;;21.36;85.57;100385.75;4963111;29;20152;-78
2023/06/20 02:10:24;;;;;;;9.02;7.38;;;;;;;21.31;85.99;100385.66;4964136;29;20102;-78
2023/06/20 02:12:54;;;;;;;10.23;7.85;;;;;;;21.27;87.53;100383.72;4962739;29;20078;-80
2023/06/20 02:15:23;;;;;;;10.68;7.30;;;;;;;21.22;88.05;100387.06;4960353;29;20047;-80
2023/06/20 02:17:49;;;;;;;8.52;7.20;;;;;;;21.17;88.34;100386.91;4960028;29;20517;-82
2023/06/20 02:20:17;;;;;;;12.85;8.18;;;;;;;21.19;88.63;100390.16;4960570;29;20137;-80
2023/06/20 02:22:46;;;;;;;11.95;7.45;;;;;;;21.15;89.10;100381.81;4960852;29;20047;-81
2023/06/20 02:25:18;;;;;;;8.52;7.00;;;;;;;21.19;88.56;100374.19;4960408;29;20115;-81
2023/06/20 02:27:48;;;;;;;10.80;7.80;;;;;;;21.15;88.65;100381.81;4961424;29;20446;-81
2023/06/20 02:30:16;;;;;;;8.85;6.80;;;;;;;21.20;88.38;100376.63;4952236;29;20051;-80
2023/06/20 02:32:44;;;;;;;9.80;7.93;;;;;;;21.19;88.43;100385.66;4955603;29;20130;-79
2023/06/20 02:35:14;;;;;;;9.38;7.40;;;;;;;21.19;88.88;100390.16;4960675;29;20142;-79
2023/06/20 02:37:43;;;;;;;8.73;7.15;;;;;;;21.14;89.54;100395.34;4957918;29;20078;-79
2023/06/20 02:40:11;;;;;;;11.90;7.80;;;;;;;21.07;89.96;100389.34;4957673;29;20074;-82
2023/06/20 02:42:37;;;;;;;11.20;8.18;;;;;;;21.07;91.21;100397.31;4959267;28;20720;-78
2023/06/20 02:45:07;;;;;;;11.07;8.02;;;;;;;21.01;91.28;100399.03;4953494;29;20051;-80
2023/06/20 02:47:43;;;;;;;10.95;8.57;;;;;;;20.98;92.33;100404.00;4956490;29;20075;-79
2023/06/20 02:50:19;;;;;;;9.48;8.15;;;;;;;20.87;93.37;100409.09;4953110;29;20220;-79
2023/06/20 02:52:49;;;;;;;10.55;8.50;;;;;;;20.69;94.92;100411.03;4960559;29;20075;-77
2023/06/20 02:55:35;;;;;;;12.05;8.20;;;;;;;20.60;97.37;100423.81;4959525;29;20079;-80
2023/06/20 02:58:11;;;;;;;12.07;8.43;;;;;;;20.50;98.62;100421.72;4956516;29;20343;-81
2023/06/20 03:00:41;;;;;;;10.77;8.80;;;;;;;20.47;100.00;100435.44;4954264;29;20130;-80
2023/06/20 03:03:12;;;;;;;11.88;8.38;;;;;;;20.42;100.00;100429.19;4953835;29;20051;-81
2023/06/20 03:05:42;;;;;;;12.13;9.07;;;;;;;20.40;100.00;100425.94;4959894;29;20517;-80
2023/06/20 03:08:09;;;;;;;9.90;8.43;;;;;;;20.41;100.00;100432.88;4960530;29;20047;-79
2023/06/20 03:10:37;;;;;;;10.60;8.57;;;;;;;20.45;100.00;100434.06;4959723;29;20094;-78
2023/06/20 03:13:04;;;;;;;12.00;8.55;;;;;;;20.46;100.00;100441.00;4954812;29;20066;-78
2023/06/20 03:15:31;;;;;;;11.10;8.93;;;;;;;20.45;100.00;100442.03;4962241;29;20244;-78
2023/06/20 03:18:00;;;;;;;10.18;8.07;;;;;;;20.37;100.00;100439.66;4966054;29;20083;-79
2023/06/20 03:20:27;;;;;;;10.82;8.48;;;;;;;20.42;100.00;100445.13;4964051;29;20048;-77
2023/06/20 03:22:53;;;;;;;9.07;8.18;;;;;;;20.39;100.00;100446.38;4966838;29;20081;-78
2023/06/20 03:25:20;;;;;;;10.02;8.98;;;;;;;20.35;100.00;100447.84;4966320;29;20059;-78
2023/06/20 03:27:47;;;;;;;10.77;8.43;;;;;;;20.37;100.00;100448.44;4961785;29;20086;-78
2023/06/20 03:30:15;;;;;;;10.05;8.57;;;;;;;20.34;100.00;100448.06;4962273;29;20189;-77
2023/06/20 03:32:41;;;;;;;9.88;8.32;;;;;;;20.34;100.00;100437.44;4962561;29;20051;-78
2023/06/20 03:35:09;;;;;;;9.02;8.05;;;;;;;20.33;100.00;100439.28;4960877;29;20094;-79
2023/06/20 03:37:36;;;;;;;9.48;8.05;;;;;;;20.36;100.00;100440.69;4953826;29;20138;-80
2023/06/20 03:40:05;;;;;;;13.38;8.00;;;;;;;20.43;100.00;100442.25;4958011;29;20047;-79
2023/06/20 03:42:32;;;;;;;9.40;7.90;;;;;;;20.26;100.00;100430.59;4959558;29;20055;-80
2023/06/20 03:44:59;;;;;;;9.40;8.40;;;;;;;20.28;100.00;100430.38;4956476;29;20075;-80
2023/06/20 03:47:25;;;;;;;12.50;8.48;;;;;;;20.37;100.00;100429.00;4956627;29;20050;-81
2023/06/20 03:49:52;;;;;;;10.95;7.70;;;;;;;20.32;100.00;100428.91;4960001;29;20082;-80
2023/06/20 03:52:20;;;;;;;10.20;8.35;;;;;;;20.28;100.00;100422.41;4967863;29;20066;-80
2023/06/20 03:54:46;;;;;;;10.10;7.75;;;;;;;20.34;100.00;100432.13;4962947;28;20070;-80
2023/06/20 03:57:13;;;;;;;9.30;8.05;;;;;;;20.35;100.00;100445.19;4957279;29;20470;-80
2023/06/20 03:59:40;;;;;;;9.82;8.45;;;;;;;20.37;100.00;100447.63;4955591;29;20068;-79
2023/06/20 04:02:07;;;;;;;9.23;8.02;;;;;;;20.34;100.00;100435.59;4953192;29;20107;-81
2023/06/20 04:04:33;;;;;;;12.98;8.65;;;;;;;20.39;100.00;100434.94;4956706;29;20055;-80
2023/06/20 04:07:00;;;;;;;9.15;8.25;;;;;;;20.39;100.00;100430.44;4953328;29;20134;-81
2023/06/20 04:09:28;;;;;;;9.88;8.25;;;;;;;20.38;100.00;100428.00;4956085;29;20533;-80
2023/06/20 04:11:55;;;;;;;10.30;7.90;;;;;;;20.47;100.00;100438.09;4951172;29;20074;-78
2023/06/20 04:14:21;;;;;;;9.23;8.25;;;;;;;20.44;100.00;100446.53;4955999;29;20083;-81
2023/06/20 04:16:49;;;;;;;10.60;8.40;;;;;;;20.46;100.00;100447.13;4956531;29;20086;-79
2023/06/20 04:19:16;;;;;;;9.07;8.13;;;;;;;20.51;100.00;100451.75;4958175;29;20540;-79
2023/06/20 04:21:43;;;;;;;9.00;8.10;;;;;;;20.45;100.00;100450.00;4951829;29;20107;-79
2023/06/20 04:24:10;;;;;;;9.27;8.35;;;;;;;20.45;100.00;100450.00;4948412;29;20050;-80
2023/06/20 04:26:38;;;;;;;9.70;8.35;;;;;;;20.46;100.00;100462.25;4949378;29;20067;-80
2023/06/20 04:29:04;;;;;;;10.80;8.68;;;;;;;20.45;100.00;100463.28;4951585;29;20086;-81
2023/06/20 04:31:31;;;;;;;11.15;8.40;;;;;;;20.45;100.00;100463.28;4956989;29;20134;-80
2023/06/20 04:33:58;;;;;;;9.15;8.27;;;;;;;20.49;100.00;100483.06;4956451;29;20142;-79
2023/06/20 04:36:26;;;;;;;9.40;8.38;;;;;;;20.43;100.00;100468.00;4957593;29;20090;-78
2023/06/20 04:38:53;;;;;;;9.23;8.32;;;;;;;20.43;100.00;100457.38;4956751;29;20391;-80
2023/06/20 04:41:20;;;;;;;9.43;8.25;;;;;;;20.40;100.00;100460.50;4954512;29;20054;-79
2023/06/20 04:43:49;;;;;;;9.98;7.80;;;;;;;20.40;100.00;100452.50;4956187;29;20134;-80
2023/06/20 04:46:16;;;;;;;10.52;8.63;;;;;;;20.52;100.00;100464.00;4955498;29;20096;-79
2023/06/20 04:48:44;;;;;;;9.18;8.00;;;;;;;20.59;100.00;100471.91;4958346;29;20122;-82
2023/06/20 04:51:11;;;;;;;9.50;8.15;;;;;;;20.47;100.00;100464.69;4957129;29;20111;-78
2023/06/20 04:53:38;;;;;;;10.23;8.85;;;;;;;20.48;100.00;100460.19;4952419;29;20582;-77
2023/06/20 04:56:05;;;;;;;9.32;8.30;;;;;;;20.38;100.00;100462.56;4952832;29;20051;-78
2023/06/20 04:58:32;;;;;;;10.38;8.60;;;;;;;20.38;100.00;100465.22;4956564;29;20142;-78
2023/06/20 05:01:01;;;;;;;10.80;9.05;;;;;;;20.51;100.00;100467.72;4953146;29;20106;-78
2023/06/20 05:03:27;;;;;;;11.18;8.85;;;;;;;20.66;100.00;100473.44;4957802;29;20083;-80
2023/06/20 05:05:54;;;;;;;10.05;8.93;;;;;;;20.69;100.00;100466.84;4950184;29;20067;-79
2023/06/20 05:08:21;;;;;;;11.38;8.88;;;;;;;20.58;100.00;100455.13;4953106;29;20131;-79
2023/06/20 05:10:48;;;;;;;9.63;8.38;;;;;;;20.51;100.00;100460.53;4950720;29;20093;-80
2023/06/20 05:13:14;;;;;;;12.88;8.32;;;;;;;20.36;100.00;100459.28;4954964;29;20078;-79
2023/06/20 05:15:41;;;;;;;9.68;8.35;;;;;;;20.32;100.00;100466.09;4958273;29;20087;-79
2023/06/20 05:18:09;;;;;;;14.20;8.50;;;;;;;20.49;100.00;100467.13;4957692;29;20047;-79
2023/06/20 05:20:35;;;;;;;11.25;7.88;;;;;;;20.51;100.00;100465.06;4956241;28;20134;-79
2023/06/20 05:23:02;;;;;;;11.75;8.35;;;;;;;20.58;100.00;100463.13;4957055;29;20115;-79
2023/06/20 05:25:28;;;;;;;11.73;7.90;;;;;;;20.92;100.00;100466.09;4956307;29;20094;-80
2023/06/20 05:27:55;;;;;;;8.98;7.68;;;;;;;21.26;100.00;100461.94;4946993;29;20515;-78
2023/06/20 05:30:22;;;;;;;10.32;7.28;;;;;;;21.60;99.54;100457.66;4955243;29;20134;-79
2023/06/20 05:32:49;;;;;;;12.55;7.70;;;;;;;21.85;97.76;100447.53;4956121;29;20054;-78
2023/06/20 05:35:17;;;;;;;11.02;8.02;;;;;;;22.10;96.93;100448.09;4956168;29;20086;-80
2023/06/20 05:37:49;;;;;;;8.63;7.68;;;;;;;23.22;93.94;100444.75;4955313;29;20518;-79
2023/06/20 05:40:16;;;;;;;9.77;8.05;;;;;;;24.37;85.83;100435.06;4950621;29;20054;-79
2023/06/20 05:42:42;;;;;;;11.63;7.75;;;;;;;23.57;84.98;100431.16;4955101;29;20069;-79
2023/06/20 05:45:10;;;;;;;9.95;7.80;;;;;;;23.73;86.01;100427.59;4946488;29;20221;-79
2023/06/20 05:47:37;;;;;;;13.57;8.40;;;;;;;24.41;83.53;100426.31;4947277;29;20503;-79
2023/06/20 05:50:04;;;;;;;10.18;7.53;;;;;;;25.10;81.27;100434.41;4945457;29;20048;-77
2023/06/20 05:52:52;;;;;;;10.35;8.90;;;;;;;24.38;80.75;100432.16;4954598;29;20114;-79
2023/06/20 05:55:19;;;;;;;11.35;8.60;;;;;;;25.58;79.14;100443.28;4939559;29;20062;-79
2023/06/20 05:57:46;;;;;;;8.88;8.00;;;;;;;26.32;74.61;100440.44;4941601;29;20047;-78
2023/06/20 06:00:14;;;;;;;14.77;8.85;;;;;;;26.48;73.39;100435.09;4945786;29;20063;-80
2023/06/20 06:02:40;;;;;;;13.13;8.70;;;;;;;26.21;74.24;100444.13;4954857;29;20115;-80
2023/06/20 06:05:08;;;;;;;10.25;8.75;;;;;;;26.04;74.72;100455.06;4956913;29;20078;-80
2023/06/20 06:07:37;;;;;;;11.20;8.77;;;;;;;25.21;76.46;100455.91;4957385;29;20089;-80
2023/06/20 06:10:04;;;;;;;10.63;8.70;;;;;;;24.25;78.41;100461.94;4945119;29;20057;-80
2023/06/20 06:12:31;;;;;;;11.07;8.15;;;;;;;24.55;80.93;100464.16;4952622;29;20530;-80
2023/06/20 06:14:58;;;;;;;11.07;8.65;;;;;;;24.48;78.97;100452.84;4956943;29;20086;-80
2023/06/20 06:17:26;;;;;;;10.98;9.18;;;;;;;24.38;78.99;100453.53;4954158;28;20485;-80
2023/06/20 06:19:53;;;;;;;9.43;8.43;;;;;;;24.72;79.78;100448.78;4955364;29;20106;-79
2023/06/20 06:22:20;;;;;;;10.00;8.90;;;;;;;25.19;77.34;100442.78;4948471;29;20580;-78
2023/06/20 06:24:48;;;;;;;9.65;8.45;;;;;;;26.61;73.33;100438.06;4954154;29;20051;-79
2023/06/20 06:27:14;;;;;;;12.98;9.13;;;;;;;26.00;73.22;100440.56;4960136;29;20078;-79
2023/06/20 06:29:41;;;;;;;11.20;8.48;;;;;;;25.93;73.20;100431.97;4959620;29;20502;-79
2023/06/20 06:32:08;;;;;;;9.38;8.20;;;;;;;26.69;71.30;100432.19;4957583;29;20082;-82
2023/06/20 06:34:35;;;;;;;11.35;8.00;;;;;;;26.96;69.65;100423.88;4958342;29;20135;-80
2023/06/20 06:37:03;;;;;;;9.27;8.15;;;;;;;26.91;70.63;100433.81;4960555;29;20085;-79
2023/06/20 06:39:30;;;;;;;11.13;8.60;;;;;;;27.25;69.07;100424.13;4957154;29;20114;-80
2023/06/20 06:41:58;;;;;;;15.13;8.45;;;;;;;27.33;68.92;100422.78;4959561;29;20086;-79
2023/06/20 06:44:25;;;;;;;10.18;8.35;;;;;;;27.20;68.80;100434.88;4959152;29;20043;-82
2023/06/20 06:46:52;;;;;;;10.00;8.15;;;;;;;28.26;66.26;100427.56;4959857;29;20082;-80
2023/06/20 06:49:18;;;;;;;12.80;8.32;;;;;;;27.67;67.53;100423.78;4952884;29;20102;-80
2023/06/20 06:51:45;;;;;;;11.05;8.93;;;;;;;27.43;67.37;100417.34;4963041;29;20071;-79
2023/06/20 06:54:12;;;;;;;11.48;8.50;;;;;;;27.32;68.67;100426.53;4959485;29;20058;-80
2023/06/20 06:56:38;;;;;;;13.75;7.65;;;;;;;27.77;67.02;100422.94;4961907;29;20092;-80
2023/06/20 06:59:07;;;;;;;9.55;7.47;;;;;;;28.83;63.98;100415.38;4967397;29;20051;-79
2023/06/20 07:01:33;;;;;;;10.27;8.27;;;;;;;28.02;64.11;100413.94;4953824;29;20063;-80
2023/06/20 07:04:01;;;;;;;9.77;7.28;;;;;;;27.71;65.66;100418.66;4956237;29;20051;-78
2023/06/20 07:06:30;;;;;;;8.25;7.45;;;;;;;27.88;65.02;100407.59;4960765;29;20532;-79
2023/06/20 07:08:56;;;;;;;7.93;7.13;;;;;;;27.46;66.06;100411.44;4959777;29;20051;-80
2023/06/20 07:11:30;;;;;;;7.45;6.63;;;;;;;27.49;65.10;100402.03;5004814;23;20594;-79
2023/06/20 07:14:17;;;;;;;12.63;6.68;;;;;;;28.51;63.01;100397.78;4990909;28;20046;-79
2023/06/20 07:16:52;;;;;;;8.07;7.22;;;;;;;28.00;64.29;100399.97;4986708;28;20153;-78
2023/06/20 07:19:51;;;;;;;11.50;7.32;;;;;;;28.76;62.68;100406.78;4981691;28;20047;-79
2023/06/20 07:22:18;;;;;;;7.65;6.82;;;;;;;28.55;63.21;100390.78;4965611;28;20058;-79
2023/06/20 07:24:48;;;;;;;7.75;6.95;;;;;;;28.28;62.92;100395.81;4989604;28;20097;-76
2023/06/20 07:27:40;;;;;;;8.73;6.78;;;;;;;27.20;64.35;100366.91;4971175;28;20473;-78
2023/06/20 07:30:09;;;;;;;9.15;7.35;;;;;;;28.23;63.11;100391.28;4958145;28;20129;-79
2023/06/20 07:32:39;;;;;;;8.05;6.43;;;;;;;28.00;63.09;100389.22;4971172;28;20134;-77
2023/06/20 07:38:45;;;;;;;8.30;6.75;;;;;;;28.06;62.96;100398.88;4964148;28;20058;-77
2023/06/20 07:41:29;;;;;;;9.00;6.50;;;;;;;28.39;62.09;100368.53;4955822;28;20559;-79
2023/06/20 07:44:10;;;;;;;8.07;7.28;;;;;;;28.34;62.08;100373.19;4974634;28;20501;-77
2023/06/20 07:47:15;;;;;;;7.35;6.65;;;;;;;28.37;62.25;100351.06;4982385;28;20061;-78
2023/06/20 07:50:16;;;;;;;9.75;7.07;;;;;;;30.80;57.88;100349.19;4911665;29;20091;-78
2023/06/20 07:52:43;;;;;;;9.45;7.07;;;;;;;28.50;61.26;100336.97;4972857;28;20047;-79
2023/06/20 07:55:10;;;;;;;10.70;7.22;;;;;;;28.58;61.87;100357.91;4972887;28;20054;-77
2023/06/20 07:58:05;;;;;;;8.32;6.93;;;;;;;28.81;61.50;100350.97;4988125;28;20125;-77
2023/06/20 08:01:02;;;;;;;;;;;;;;;;;;;;;
2023/06/20 08:03:55;;;;;;;8.13;6.68;;;;;;;29.44;60.42;100352.78;4982267;28;20057;-77
2023/06/20 08:06:53;;;;;;;9.52;7.35;;;;;;;28.48;62.31;100352.59;4973379;28;20054;-79
2023/06/20 08:09:33;;;;;;;9.95;7.15;;;;;;;29.09;60.52;100325.13;4985616;28;20500;-77
2023/06/20 08:12:33;;;;;;;8.35;7.07;;;;;;;29.45;60.10;100349.00;4978621;28;20101;-80
2023/06/20 08:15:35;;;;;;;8.43;7.40;;;;;;;29.91;60.26;100331.13;4975355;28;20439;-79
2023/06/20 08:24:42;;;;;;;15.27;7.20;;;;;;;31.24;55.84;100308.94;4870860;29;20064;-79
2023/06/20 08:27:12;;;;;;;11.45;7.38;;;;;;;30.55;57.17;100324.22;4890298;29;20049;-79
2023/06/20 08:53:29;;;;;;;10.55;7.38;;;;;;;32.32;53.60;100340.69;4200721;26;20051;-80
2023/06/20 08:56:47;;;;;;;10.90;7.57;;;;;;;30.26;57.65;100337.09;4955255;29;20497;-81
2023/06/20 09:00:09;;;;;;;9.75;6.80;;;;;;;31.92;54.27;100324.25;4920770;29;20058;-77
2023/06/20 09:03:08;;;;;;;8.88;7.20;;;;;;;31.06;56.70;100312.53;4936760;29;20047;-80
2023/06/20 09:05:55;;;;;;;10.68;7.82;;;;;;;31.52;55.85;100319.72;4918459;29;20091;-79
2023/06/20 09:08:40;;;;;;;10.98;7.00;;;;;;;31.23;55.89;100301.91;4938981;29;20138;-81
2023/06/20 09:11:38;;;;;;;9.80;7.30;;;;;;;31.31;55.91;100322.03;4931752;29;20056;-79
2023/06/20 09:14:35;;;;;;;9.70;7.22;;;;;;;31.78;55.06;100307.25;4930773;29;20059;-79
2023/06/20 09:17:15;;;;;;;9.93;7.55;;;;;;;31.51;54.88;100310.81;4938080;29;20055;-79
2023/06/20 09:19:47;;;;;;;9.15;7.38;;;;;;;30.63;57.16;100330.88;4937163;29;20059;-79
2023/06/20 09:22:21;;;;;;;7.90;6.70;;;;;;;32.16;54.07;100323.16;4940763;29;20083;-81
2023/06/20 09:24:50;;;;;;;8.05;6.90;;;;;;;32.78;51.76;100310.53;4941560;29;20131;-81
2023/06/20 09:27:16;;;;;;;7.95;6.88;;;;;;;30.63;54.46;100315.47;4947419;29;20190;-78
2023/06/20 09:29:50;;;;;;;7.25;6.20;;;;;;;32.27;53.92;100324.56;4941841;29;20063;-78
2023/06/20 09:32:21;;;;;;;10.18;7.20;;;;;;;32.47;53.79;100329.47;4936371;29;20047;-80
2023/06/20 09:34:48;;;;;;;9.38;6.97;;;;;;;32.39;53.18;100327.50;4937252;29;20478;-77
2023/06/20 09:37:16;;;;;;;8.07;7.18;;;;;;;32.67;52.84;100315.41;4933736;29;20047;-78
2023/06/20 09:39:43;;;;;;;10.63;7.53;;;;;;;32.84;52.69;100311.22;4941068;29;20051;-79
2023/06/20 09:42:12;;;;;;;9.13;7.55;;;;;;;32.76;52.80;100314.69;4943924;29;20086;-79
2023/06/20 09:44:39;;;;;;;11.45;6.82;;;;;;;32.39;53.39;100316.69;4941568;29;20051;-79
2023/06/20 09:47:06;;;;;;;8.63;7.35;;;;;;;31.98;54.22;100316.84;4934681;29;20048;-79
2023/06/20 09:49:35;;;;;;;13.23;7.25;;;;;;;31.68;55.51;100307.47;4936506;29;20569;-80
2023/06/20 09:52:06;;;;;;;9.95;7.43;;;;;;;32.45;54.70;100306.53;4936607;29;20067;-78
2023/06/20 09:54:43;;;;;;;9.07;7.07;;;;;;;32.67;53.01;100296.44;4940007;29;20059;-79
2023/06/20 09:57:14;;;;;;;7.25;6.55;;;;;;;33.07;51.51;100287.56;4940952;29;20139;-78
2023/06/20 09:59:42;;;;;;;12.10;6.85;;;;;;;32.95;51.44;100286.22;4940688;29;20051;-79
2023/06/20 10:02:10;;;;;;;13.95;6.40;;;;;;;33.10;51.05;100287.69;4933203;29;20122;-80
2023/06/20 10:04:42;;;;;;;21.35;5.35;;;;;;;32.97;49.49;100278.59;4940563;29;20066;-79
2023/06/20 10:07:12;;;;;;;6.55;5.95;;;;;;;32.57;50.81;100285.88;4932098;29;20047;-80
2023/06/20 10:09:40;;;;;;;10.60;6.20;;;;;;;32.59;51.62;100291.00;4943093;29;20479;-79
2023/06/20 10:12:08;;;;;;;11.52;5.72;;;;;;;32.61;50.65;100283.34;4950925;29;20055;-79
2023/06/20 10:14:35;;;;;;;9.65;5.53;;;;;;;32.76;49.61;100265.91;4942926;29;20066;-79
2023/06/20 10:17:06;;;;;;;11.32;5.90;;;;;;;32.56;50.27;100276.16;4944471;29;20115;-79
2023/06/20 10:19:48;;;;;;;7.97;5.57;;;;;;;32.20;51.60;100280.84;4931408;29;20162;-79
2023/06/20 10:22:15;;;;;;;9.50;5.80;;;;;;;32.60;50.96;100282.56;4936926;29;20061;-79
2023/06/20 10:24:42;;;;;;;10.55;5.57;;;;;;;32.53;51.14;100278.69;4936877;29;20086;-76
2023/06/20 10:27:09;;;;;;;7.75;5.55;;;;;;;32.31;50.41;100277.59;4936438;29;20052;-78
2023/06/20 10:29:42;;;;;;;7.40;5.72;;;;;;;32.69;50.22;100271.75;4934113;29;20159;-78
2023/06/20 10:32:10;;;;;;;9.32;5.95;;;;;;;32.76;50.57;100263.19;4936859;29;20048;-78
2023/06/20 10:34:39;;;;;;;9.32;6.35;;;;;;;32.01;51.20;100259.41;4946902;29;20053;-78
2023/06/20 10:37:16;;;;;;;8.25;5.78;;;;;;;32.17;51.45;100260.59;4955993;29;20513;-79
2023/06/20 10:39:52;;;;;;;7.50;6.20;;;;;;;32.34;52.38;100259.94;4938612;29;20063;-78
2023/06/20 10:42:42;;;;;;;6.32;5.72;;;;;;;32.35;51.32;100261.53;4939256;29;20498;-79
2023/06/20 10:45:19;;;;;;;6.90;5.75;;;;;;;32.66;50.54;100251.50;4929920;29;20123;-78
2023/06/20 10:47:46;;;;;;;6.68;6.00;;;;;;;32.67;50.81;100252.28;4938100;29;20075;-78
2023/06/20 10:50:14;;;;;;;7.60;6.32;;;;;;;31.10;52.79;100243.25;4937377;29;20099;-78
2023/06/20 10:52:42;;;;;;;7.43;6.28;;;;;;;30.63;53.89;100234.47;4937413;29;20154;-76
2023/06/20 10:55:15;;;;;;;8.10;6.25;;;;;;;30.43;54.47;100234.78;4940920;29;20094;-81
2023/06/20 10:57:46;;;;;;;6.78;6.07;;;;;;;31.39;54.65;100245.63;4940884;29;20075;-79
2023/06/20 11:00:15;;;;;;;8.30;5.88;;;;;;;32.20;52.07;100232.09;4940967;29;20058;-79
2023/06/20 11:02:43;;;;;;;6.78;5.97;;;;;;;32.48;51.80;100233.59;4945983;29;20520;-78
2023/06/20 11:05:10;;;;;;;7.60;5.93;;;;;;;32.87;51.11;100224.66;4945263;29;20058;-79
2023/06/20 11:07:52;;;;;;;13.10;6.15;;;;;;;33.01;50.34;100224.56;4942854;29;20220;-79
2023/06/20 11:10:20;;;;;;;;;;;;;;;32.79;51.40;100228.16;4935792;29;20360;-79
2023/06/20 11:12:47;;;;;;;6.55;5.50;;;;;;;32.96;50.92;100222.00;4941143;29;19969;-80
2023/06/20 11:15:26;;;;;;;7.43;5.93;;;;;;;33.12;50.14;100230.44;4941984;29;20107;-79
2023/06/20 11:17:53;;;;;;;6.05;5.45;;;;;;;32.77;50.26;100224.16;4941956;29;20478;-78
2023/06/20 11:20:22;;;;;;;7.72;5.35;;;;;;;32.71;49.72;100226.16;4937399;29;20501;-78
2023/06/20 11:22:49;;;;;;;9.50;5.38;;;;;;;32.49;51.71;100228.97;4936994;29;20121;-78
2023/06/20 11:25:25;;;;;;;7.30;5.65;;;;;;;32.62;49.76;100214.50;4939997;29;20052;-80
2023/06/20 11:27:51;;;;;;;52.60;8.50;;;;;;;32.52;49.72;100223.72;4948446;29;20044;-78
2023/06/20 11:30:25;;;;;;;6.00;4.95;;;;;;;32.50;50.06;100212.41;4959265;29;20095;-77
2023/06/20 11:33:06;;;;;;;6.72;5.40;;;;;;;32.83;49.97;100222.91;4969044;29;20502;-79
2023/06/20 11:35:42;;;;;;;8.25;5.40;;;;;;;32.81;50.04;100214.28;4960772;29;20134;-78
2023/06/20 11:38:10;;;;;;;7.85;5.28;;;;;;;33.23;49.26;100208.16;4954537;29;20079;-77
2023/06/20 11:40:38;;;;;;;9.75;4.82;;;;;;;33.22;49.07;100201.13;4940060;29;20059;-79
2023/06/20 11:43:06;;;;;;;10.30;5.00;;;;;;;33.39;47.54;100196.88;4940061;29;20058;-78
2023/06/20 11:45:34;;;;;;;5.45;4.95;;;;;;;33.67;47.34;100194.63;4939740;29;20052;-78
2023/06/20 11:48:10;;;;;;;5.88;5.28;;;;;;;33.47;48.01;100198.81;4940588;29;20054;-78
2023/06/20 11:50:38;;;;;;;11.07;5.28;;;;;;;33.22;48.39;100187.56;4940966;29;20066;-79
2023/06/20 11:53:05;;;;;;;17.20;6.88;;;;;;;33.46;47.42;100189.06;4939365;29;20076;-79
2023/06/20 11:55:47;;;;;;;11.77;5.75;;;;;;;33.57;46.59;100182.19;4940268;29;20108;-79
2023/06/20 11:58:14;;;;;;;9.32;5.65;;;;;;;33.49;47.08;100191.16;4939076;29;20122;-79
2023/06/20 12:00:44;;;;;;;7.90;5.28;;;;;;;33.79;46.66;100183.91;4940229;29;20083;-79
2023/06/20 12:03:10;;;;;;;5.38;4.88;;;;;;;33.32;47.22;100186.50;4939145;29;20078;-79
2023/06/20 12:05:38;;;;;;;8.65;5.13;;;;;;;33.67;47.53;100194.63;4940186;29;20058;-79
2023/06/20 12:08:05;;;;;;;8.10;4.95;;;;;;;33.41;46.32;100183.78;4940080;29;20130;-80
2023/06/20 12:10:34;;;;;;;9.18;5.15;;;;;;;33.50;46.71;100187.31;4940374;29;20059;-80
2023/06/20 12:13:04;;;;;;;8.82;4.75;;;;;;;33.47;46.08;100182.53;4939733;29;20066;-80